Terminal Aerodrome Forecast
Issued by NWS

Home | Current Version | Previous Version | Text Only | Print | Product List | Glossary On
Versions: 1 2 3 4 5 6 7 8 9 10 11 12 13 14 15 16 17 18 19 20 21 22 23 24 25 26
000
FTUS45 KGJT 200520
TAFDRO
TAF
KDRO 200520Z 2006/2106 36005KT P6SM SKC
     FM201900 25013G25KT P6SM FEW100 FEW250
     FM210100 25015KT P6SM FEW120 FEW250
     FM210400 25010KT P6SM FEW150 FEW250 WS007/26015KT=

USA.gov is the U.S. government's official web portal to all federal, state and local government web resources and services.